createdAt,value
2018-07-24T00:00:49.809Z,24.07
2018-07-24T00:03:20.261Z,24.07
2018-07-24T00:05:50.373Z,24.05
2018-07-24T00:08:20.456Z,24.04
2018-07-24T00:10:50.733Z,24.01
2018-07-24T00:13:21.291Z,24.00
2018-07-24T00:15:51.111Z,23.98
2018-07-24T00:18:22.086Z,23.95
2018-07-24T00:20:52.159Z,23.94
2018-07-24T00:23:22.502Z,23.94
2018-07-24T00:25:52.450Z,23.92
2018-07-24T00:28:22.558Z,23.90
2018-07-24T00:30:52.961Z,23.89
2018-07-24T00:33:23.740Z,23.88
2018-07-24T00:35:54.149Z,23.86
2018-07-24T00:38:24.254Z,23.84
2018-07-24T00:40:54.642Z,23.82
2018-07-24T00:43:24.853Z,23.80
2018-07-24T00:45:55.013Z,23.78
2018-07-24T00:48:25.282Z,23.77
2018-07-24T00:50:55.478Z,23.74
2018-07-24T00:53:25.699Z,23.72
2018-07-24T00:55:55.759Z,23.71
2018-07-24T00:58:25.862Z,23.69
2018-07-24T01:00:56.922Z,23.67
2018-07-24T01:03:27.199Z,23.66
2018-07-24T01:05:57.158Z,23.65
2018-07-24T01:08:27.475Z,23.65
2018-07-24T01:10:57.956Z,23.65
2018-07-24T01:13:28.140Z,23.65
2018-07-24T01:15:58.423Z,23.64
2018-07-24T01:18:28.936Z,23.61
2018-07-24T01:20:59.161Z,23.58
2018-07-24T01:23:29.585Z,23.55
2018-07-24T01:26:00.546Z,23.49
2018-07-24T01:28:30.734Z,23.46
2018-07-24T01:31:00.785Z,23.44
2018-07-24T01:33:31.891Z,23.40
2018-07-24T01:36:01.909Z,23.37
2018-07-24T01:38:32.284Z,23.35
2018-07-24T01:41:02.634Z,23.34
2018-07-24T01:43:32.800Z,23.32
2018-07-24T01:46:02.923Z,23.28
2018-07-24T01:48:33.110Z,23.23
2018-07-24T01:51:03.264Z,23.18
2018-07-24T01:53:33.774Z,23.14
2018-07-24T01:56:03.996Z,23.09
2018-07-24T01:58:35.126Z,23.03
2018-07-24T02:01:05.175Z,23.02
2018-07-24T02:03:36.007Z,22.99
2018-07-24T02:06:06.408Z,22.97
2018-07-24T02:08:36.564Z,22.94
2018-07-24T02:11:06.897Z,22.91
2018-07-24T02:13:37.023Z,22.87
2018-07-24T02:16:07.161Z,22.84
2018-07-24T02:18:37.546Z,22.79
2018-07-24T02:21:07.638Z,22.76
2018-07-24T02:23:37.884Z,22.72
2018-07-24T02:26:08.439Z,22.70
2018-07-24T02:28:38.642Z,22.68
2018-07-24T02:31:09.086Z,22.68
2018-07-24T02:33:39.710Z,22.67
2018-07-24T02:36:10.072Z,22.66
2018-07-24T02:38:40.290Z,22.66
2018-07-24T02:41:10.589Z,22.66
2018-07-24T02:43:40.807Z,22.68
2018-07-24T02:46:16.307Z,22.68
2018-07-24T02:48:46.507Z,22.69
2018-07-24T02:51:16.609Z,22.70
2018-07-24T02:53:47.303Z,22.71
2018-07-24T02:56:17.676Z,22.72
2018-07-24T02:58:47.884Z,22.73
2018-07-24T03:01:19.417Z,22.72
2018-07-24T03:03:49.955Z,22.71
2018-07-24T03:06:20.438Z,22.71
2018-07-24T03:08:50.708Z,22.72
2018-07-24T03:11:21.291Z,22.72
2018-07-24T03:13:51.381Z,22.73
2018-07-24T03:16:22.201Z,22.72
2018-07-24T03:18:52.532Z,22.73
2018-07-24T03:21:22.765Z,22.74
2018-07-24T03:23:52.939Z,22.73
2018-07-24T03:26:23.920Z,22.73
2018-07-24T03:28:54.378Z,22.73
2018-07-24T03:31:24.588Z,22.74
2018-07-24T03:33:54.829Z,22.74
2018-07-24T03:36:24.963Z,22.74
2018-07-24T03:38:55.134Z,22.74
2018-07-24T03:41:25.287Z,22.74
2018-07-24T03:43:59.525Z,22.74
2018-07-24T03:46:30.101Z,22.74
2018-07-24T03:49:01.737Z,22.75
2018-07-24T03:51:31.962Z,22.74
2018-07-24T03:54:02.602Z,22.73
2018-07-24T03:56:32.835Z,22.73
2018-07-24T03:59:02.935Z,22.73
2018-07-24T04:01:33.075Z,22.74
2018-07-24T04:04:03.293Z,22.75
2018-07-24T04:06:33.550Z,22.77
2018-07-24T04:09:04.735Z,22.79
2018-07-24T04:11:35.411Z,22.81
2018-07-24T04:14:05.710Z,22.84
2018-07-24T04:16:36.147Z,22.85
2018-07-24T04:19:06.359Z,22.89
2018-07-24T04:21:42.962Z,22.91
2018-07-24T04:24:13.581Z,22.95
2018-07-24T04:26:43.760Z,22.99
2018-07-24T04:29:14.010Z,23.03
2018-07-24T04:31:44.247Z,23.09
2018-07-24T04:34:14.356Z,23.13
2018-07-24T04:36:44.708Z,23.17
2018-07-24T04:39:15.258Z,23.22
2018-07-24T04:41:45.651Z,23.27
2018-07-24T04:44:16.051Z,23.31
2018-07-24T04:46:47.145Z,23.34
2018-07-24T04:49:17.438Z,23.38
2018-07-24T04:51:48.779Z,23.40
2018-07-24T04:54:19.155Z,23.43
2018-07-24T04:56:49.498Z,23.43
2018-07-24T04:59:19.579Z,23.45
2018-07-24T05:01:49.549Z,23.45
2018-07-24T05:04:19.670Z,23.50
2018-07-24T05:06:49.954Z,23.53
2018-07-24T05:09:20.023Z,23.59
2018-07-24T05:11:50.267Z,23.61
2018-07-24T05:14:21.373Z,23.62
2018-07-24T05:16:52.344Z,23.65
2018-07-24T05:19:22.783Z,23.66
2018-07-24T05:21:53.149Z,23.70
2018-07-24T05:24:24.076Z,23.75
2018-07-24T05:26:54.255Z,23.78
2018-07-24T05:29:24.250Z,23.81
2018-07-24T05:31:54.386Z,23.85
2018-07-24T05:34:24.746Z,23.91
2018-07-24T05:36:55.677Z,23.94
2018-07-24T05:39:25.761Z,23.98
2018-07-24T05:41:56.416Z,24.00
2018-07-24T05:44:26.439Z,24.01
2018-07-24T05:46:56.599Z,24.02
2018-07-24T05:49:26.940Z,24.05
2018-07-24T05:51:57.676Z,24.06
2018-07-24T05:54:28.490Z,24.09
2018-07-24T05:56:58.874Z,24.13
2018-07-24T05:59:29.201Z,24.17
2018-07-24T06:01:59.472Z,24.23
2018-07-24T06:04:30.268Z,24.29
2018-07-24T06:07:00.580Z,24.34
2018-07-24T06:09:30.871Z,24.41
2018-07-24T06:12:01.123Z,24.48
2018-07-24T06:14:32.208Z,24.54
2018-07-24T06:17:02.738Z,24.58
2018-07-24T06:19:33.830Z,24.60
2018-07-24T06:22:04.176Z,24.62
2018-07-24T06:24:37.721Z,24.64
2018-07-24T06:27:07.888Z,24.66
2018-07-24T06:29:38.138Z,24.65
2018-07-24T06:32:08.743Z,24.67
2018-07-24T06:34:39.395Z,24.72
2018-07-24T06:37:10.343Z,24.73
2018-07-24T06:39:40.747Z,24.74
2018-07-24T06:42:11.871Z,24.74
2018-07-24T06:44:42.024Z,24.73
2018-07-24T06:47:12.936Z,24.74
2018-07-24T06:49:43.095Z,24.72
2018-07-24T06:52:13.578Z,24.73
2018-07-24T06:54:43.883Z,24.73
2018-07-24T06:57:14.412Z,24.73
2018-07-24T06:59:44.557Z,24.80
2018-07-24T07:02:15.442Z,24.83
2018-07-24T07:04:46.145Z,24.88
2018-07-24T07:07:16.543Z,24.92
2018-07-24T07:09:46.880Z,24.94
2018-07-24T07:12:17.410Z,25.00
2018-07-24T07:14:48.416Z,25.04
2018-07-24T07:17:18.651Z,25.08
2018-07-24T07:19:49.024Z,25.13
2018-07-24T07:22:19.314Z,25.20
2018-07-24T07:24:49.899Z,25.28
2018-07-24T07:27:21.011Z,25.34
2018-07-24T07:29:51.327Z,25.41
2018-07-24T07:32:21.736Z,25.47
2018-07-24T07:34:52.171Z,25.55
2018-07-24T07:37:22.192Z,25.61
2018-07-24T07:39:52.358Z,25.67
2018-07-24T07:42:23.324Z,25.71
2018-07-24T07:44:53.656Z,25.74
2018-07-24T07:47:24.120Z,25.79
2018-07-24T07:49:54.532Z,25.85
2018-07-24T07:52:25.135Z,25.88
2018-07-24T07:54:55.458Z,25.93
2018-07-24T07:57:25.714Z,25.99
2018-07-24T07:59:55.984Z,26.03
2018-07-24T08:02:26.204Z,26.07
2018-07-24T08:04:56.633Z,26.12
2018-07-24T08:07:27.430Z,26.14
2018-07-24T08:09:58.660Z,26.19
2018-07-24T08:12:29.720Z,26.26
2018-07-24T08:15:00.271Z,26.31
2018-07-24T08:17:30.550Z,26.38
2018-07-24T08:20:00.999Z,26.43
2018-07-24T08:22:31.312Z,26.51
2018-07-24T08:25:01.479Z,26.56
2018-07-24T08:27:31.864Z,26.61
2018-07-24T08:30:02.032Z,26.66
2018-07-24T08:32:32.210Z,26.67
2018-07-24T08:35:02.436Z,26.65
2018-07-24T08:37:32.539Z,26.67
2018-07-24T08:40:02.611Z,26.69
2018-07-24T08:42:32.695Z,26.70
2018-07-24T08:45:03.241Z,26.72
2018-07-24T08:47:33.226Z,26.73
2018-07-24T08:50:03.450Z,26.75
2018-07-24T08:52:33.691Z,26.78
2018-07-24T08:55:04.654Z,26.83
2018-07-24T08:57:34.941Z,26.88
2018-07-24T09:00:05.188Z,26.96
2018-07-24T09:02:36.268Z,27.01
2018-07-24T09:05:06.383Z,27.09
2018-07-24T09:07:36.814Z,27.17
2018-07-24T09:10:07.375Z,27.23
2018-07-24T09:12:38.127Z,27.29
2018-07-24T09:15:08.366Z,27.36
2018-07-24T09:17:38.615Z,27.43
2018-07-24T09:20:08.877Z,27.49
2018-07-24T09:22:39.016Z,27.53
2018-07-24T09:25:09.629Z,27.59
2018-07-24T09:27:39.909Z,27.65
2018-07-24T09:30:10.206Z,27.71
2018-07-24T09:32:40.376Z,27.76
2018-07-24T09:35:10.679Z,27.79
2018-07-24T09:37:40.760Z,27.83
2018-07-24T09:40:11.192Z,27.88
2018-07-24T09:42:41.510Z,27.92
2018-07-24T09:45:11.864Z,27.98
2018-07-24T09:47:42.098Z,28.04
2018-07-24T09:50:12.177Z,28.12
2018-07-24T09:52:43.051Z,28.17
2018-07-24T09:55:13.366Z,28.17
2018-07-24T09:57:43.507Z,28.19
2018-07-24T10:00:13.733Z,28.21
2018-07-24T10:02:43.953Z,28.23
2018-07-24T10:05:14.495Z,28.25
2018-07-24T10:07:45.059Z,28.25
2018-07-24T10:10:15.334Z,28.29
2018-07-24T10:12:45.821Z,28.31
2018-07-24T10:15:16.300Z,28.35
2018-07-24T10:17:47.616Z,28.45
2018-07-24T10:20:17.827Z,28.51
2018-07-24T10:22:48.010Z,28.56
2018-07-24T10:25:18.511Z,28.61
2018-07-24T10:27:48.768Z,28.64
2018-07-24T10:30:19.153Z,28.69
2018-07-24T10:32:49.771Z,28.76
2018-07-24T10:35:19.838Z,28.80
2018-07-24T10:37:50.044Z,28.84
2018-07-24T10:40:20.449Z,28.86
2018-07-24T10:42:50.538Z,28.89
2018-07-24T10:45:22.115Z,28.92
2018-07-24T10:47:52.299Z,28.96
2018-07-24T10:50:23.299Z,29.02
2018-07-24T10:52:53.738Z,29.06
2018-07-24T10:55:23.983Z,29.11
2018-07-24T10:57:54.683Z,29.18
2018-07-24T11:00:24.769Z,29.18
2018-07-24T11:02:55.264Z,29.22
2018-07-24T11:05:26.308Z,29.28
2018-07-24T11:07:57.007Z,29.33
2018-07-24T11:10:27.330Z,29.41
2018-07-24T11:12:57.467Z,29.50
2018-07-24T11:15:27.552Z,29.58
2018-07-24T11:17:57.637Z,29.57
2018-07-24T11:20:27.888Z,29.56
2018-07-24T11:22:57.876Z,29.54
2018-07-24T11:25:28.326Z,29.51
2018-07-24T11:27:58.508Z,29.51
2018-07-24T11:30:28.870Z,29.53
2018-07-24T11:32:59.014Z,29.57
2018-07-24T11:35:29.762Z,29.63
2018-07-24T11:38:00.360Z,29.72
2018-07-24T11:40:37.015Z,29.80
2018-07-24T11:43:07.309Z,29.90
2018-07-24T11:45:37.594Z,29.97
2018-07-24T11:48:07.914Z,30.04
2018-07-24T11:50:37.990Z,30.13
2018-07-24T11:53:08.331Z,30.21
2018-07-24T11:55:38.564Z,30.24
2018-07-24T11:58:09.425Z,30.27
2018-07-24T12:00:39.839Z,30.30
2018-07-24T12:03:10.276Z,30.34
2018-07-24T12:05:40.756Z,30.33
2018-07-24T12:08:11.780Z,30.36
2018-07-24T12:10:42.253Z,30.42
2018-07-24T12:13:12.429Z,30.47
2018-07-24T12:15:42.614Z,30.48
2018-07-24T12:18:13.087Z,30.51
2018-07-24T12:20:43.481Z,30.56
2018-07-24T12:23:13.721Z,30.57
2018-07-24T12:25:44.325Z,30.54
2018-07-24T12:28:14.618Z,30.53
2018-07-24T12:30:45.610Z,30.50
2018-07-24T12:33:16.527Z,30.48
2018-07-24T12:35:46.761Z,30.52
2018-07-24T12:38:16.969Z,30.55
2018-07-24T12:40:47.448Z,30.57
2018-07-24T12:43:17.787Z,30.59
2018-07-24T12:45:48.021Z,30.64
2018-07-24T12:48:20.487Z,30.71
2018-07-24T12:50:50.855Z,30.76
2018-07-24T12:53:20.911Z,30.81
2018-07-24T12:55:51.042Z,30.87
2018-07-24T12:58:21.165Z,30.91
2018-07-24T13:00:51.376Z,30.96
2018-07-24T13:03:21.660Z,31.04
2018-07-24T13:05:52.073Z,31.09
2018-07-24T13:08:22.484Z,31.14
2018-07-24T13:10:53.113Z,31.21
2018-07-24T13:13:24.488Z,31.27
2018-07-24T13:15:54.640Z,31.29
2018-07-24T13:18:25.240Z,31.36
2018-07-24T13:20:56.476Z,31.42
2018-07-24T13:23:26.727Z,31.48
2018-07-24T13:25:57.017Z,31.57
2018-07-24T13:28:27.198Z,31.68
2018-07-24T13:30:57.705Z,31.77
2018-07-24T13:33:28.150Z,31.82
2018-07-24T13:35:58.312Z,31.88
2018-07-24T13:38:28.566Z,31.90
2018-07-24T13:40:58.921Z,31.93
2018-07-24T13:43:29.229Z,31.98
2018-07-24T13:45:59.738Z,32.02
2018-07-24T13:48:30.151Z,31.99
2018-07-24T13:51:00.375Z,31.93
2018-07-24T13:53:30.489Z,31.91
2018-07-24T13:56:00.706Z,31.90
2018-07-24T13:58:30.926Z,31.91
2018-07-24T14:01:01.130Z,31.91
2018-07-24T14:03:31.281Z,31.90
2018-07-24T14:06:01.557Z,31.87
2018-07-24T14:08:31.774Z,31.85
2018-07-24T14:11:02.918Z,31.83
2018-07-24T14:13:33.069Z,31.80
2018-07-24T14:16:03.198Z,31.80
2018-07-24T14:18:33.422Z,31.84
2018-07-24T14:21:03.901Z,31.89
2018-07-24T14:23:34.109Z,31.89
2018-07-24T14:26:04.089Z,31.85
2018-07-24T14:28:34.331Z,31.63
2018-07-24T14:31:04.635Z,31.73
2018-07-24T14:33:34.819Z,31.72
2018-07-24T14:36:05.058Z,31.72
2018-07-24T14:38:36.072Z,31.73
2018-07-24T14:41:06.343Z,31.74
2018-07-24T14:43:36.597Z,31.76
2018-07-24T14:46:06.690Z,31.77
2018-07-24T14:48:37.145Z,31.79
2018-07-24T14:51:07.650Z,31.82
2018-07-24T14:53:37.864Z,31.84
2018-07-24T14:56:08.000Z,31.86
2018-07-24T14:58:38.243Z,31.92
2018-07-24T15:01:08.787Z,31.99
2018-07-24T15:03:38.940Z,32.04
2018-07-24T15:06:09.099Z,32.10
2018-07-24T15:08:39.462Z,32.11
2018-07-24T15:11:09.865Z,32.16
2018-07-24T15:13:40.681Z,32.21
2018-07-24T15:16:10.830Z,32.24
2018-07-24T15:18:41.042Z,32.26
2018-07-24T15:21:11.270Z,32.26
2018-07-24T15:23:41.487Z,32.26
2018-07-24T15:26:11.590Z,32.29
2018-07-24T15:28:41.816Z,32.27
2018-07-24T15:31:12.191Z,32.26
2018-07-24T15:33:42.348Z,32.26
2018-07-24T15:36:12.632Z,32.28
2018-07-24T15:38:43.046Z,32.32
2018-07-24T15:41:13.397Z,32.34
2018-07-24T15:43:43.769Z,32.35
2018-07-24T15:46:13.966Z,32.36
2018-07-24T15:48:44.623Z,32.37
2018-07-24T15:51:14.895Z,32.41
2018-07-24T15:53:45.052Z,32.43
2018-07-24T15:56:15.215Z,32.43
2018-07-24T15:58:45.794Z,32.44
2018-07-24T16:01:15.966Z,32.43
2018-07-24T16:03:46.045Z,32.37
2018-07-24T16:06:16.412Z,32.33
2018-07-24T16:08:47.121Z,32.29
2018-07-24T16:11:17.327Z,32.27
2018-07-24T16:13:47.883Z,32.29
2018-07-24T16:16:17.966Z,32.30
2018-07-24T16:18:48.200Z,32.28
2018-07-24T16:21:18.729Z,32.29
2018-07-24T16:23:49.328Z,32.28
2018-07-24T16:26:19.576Z,32.31
2018-07-24T16:28:50.362Z,32.32
2018-07-24T16:31:20.549Z,32.33
2018-07-24T16:33:50.869Z,32.37
2018-07-24T16:36:21.506Z,32.37
2018-07-24T16:38:51.862Z,32.38
2018-07-24T16:41:22.156Z,32.38
2018-07-24T16:43:52.939Z,32.37
2018-07-24T16:46:23.870Z,32.37
2018-07-24T16:48:54.144Z,32.37
2018-07-24T16:51:24.490Z,32.34
2018-07-24T16:53:54.666Z,32.34
2018-07-24T16:56:25.295Z,32.32
2018-07-24T16:58:55.635Z,32.30
2018-07-24T17:01:26.078Z,32.27
2018-07-24T17:03:56.410Z,32.24
2018-07-24T17:06:26.606Z,32.22
2018-07-24T17:08:56.684Z,32.19
2018-07-24T17:11:26.968Z,32.14
2018-07-24T17:13:57.474Z,32.11
2018-07-24T17:16:27.919Z,32.10
2018-07-24T17:18:58.091Z,32.08
2018-07-24T17:21:28.381Z,32.06
2018-07-24T17:23:58.551Z,32.03
2018-07-24T17:26:29.106Z,32.00
2018-07-24T17:28:59.373Z,31.99
2018-07-24T17:31:29.810Z,31.94
2018-07-24T17:33:59.975Z,31.88
2018-07-24T17:36:30.439Z,31.86
2018-07-24T17:39:02.453Z,31.83
2018-07-24T17:41:37.478Z,31.76
2018-07-24T17:44:08.534Z,31.70
2018-07-24T17:46:39.539Z,31.65
2018-07-24T17:49:09.847Z,31.60
2018-07-24T17:51:39.877Z,31.57
2018-07-24T17:54:10.198Z,31.56
2018-07-24T17:56:40.711Z,31.55
2018-07-24T17:59:11.314Z,31.50
2018-07-24T18:01:41.490Z,31.44
2018-07-24T18:04:11.838Z,31.37
2018-07-24T18:06:42.016Z,31.29
2018-07-24T18:09:13.590Z,31.21
2018-07-24T18:11:43.729Z,31.12
2018-07-24T18:14:14.932Z,31.01
2018-07-24T18:16:45.122Z,30.93
2018-07-24T18:19:15.371Z,30.88
2018-07-24T18:21:45.992Z,30.82
2018-07-24T18:24:16.099Z,30.76
2018-07-24T18:26:46.441Z,30.69
2018-07-24T18:29:16.824Z,30.61
2018-07-24T18:31:47.080Z,30.53
2018-07-24T18:34:17.347Z,30.46
2018-07-24T18:36:47.871Z,30.39
2018-07-24T18:39:18.112Z,30.30
2018-07-24T18:41:48.324Z,30.24
2018-07-24T18:44:18.647Z,30.15
2018-07-24T18:46:49.368Z,30.08
2018-07-24T18:49:19.732Z,30.00
2018-07-24T18:51:50.303Z,29.94
2018-07-24T18:54:24.057Z,29.88
2018-07-24T18:56:55.171Z,29.86
2018-07-24T18:59:25.980Z,29.82
2018-07-24T19:01:56.634Z,29.78
2018-07-24T19:04:27.136Z,29.75
2018-07-24T19:06:57.668Z,29.69
2018-07-24T19:09:27.866Z,29.66
2018-07-24T19:11:58.416Z,29.63
2018-07-24T19:14:28.541Z,29.62
2018-07-24T19:16:59.101Z,29.59
2018-07-24T19:19:29.188Z,29.56
2018-07-24T19:21:59.369Z,29.54
2018-07-24T19:24:29.899Z,29.50
2018-07-24T19:27:00.519Z,29.47
2018-07-24T19:29:30.757Z,29.44
2018-07-24T19:32:01.200Z,29.41
2018-07-24T19:34:31.793Z,29.37
2018-07-24T19:37:02.169Z,29.32
2018-07-24T19:39:32.851Z,29.29
2018-07-24T19:42:02.949Z,29.25
2018-07-24T19:44:33.176Z,29.22
2018-07-24T19:47:03.706Z,29.19
2018-07-24T19:49:34.248Z,29.17
2018-07-24T19:52:04.832Z,29.13
2018-07-24T19:54:35.432Z,29.11
2018-07-24T19:57:05.704Z,29.08
2018-07-24T19:59:36.102Z,29.03
2018-07-24T20:02:06.326Z,29.01
2018-07-24T20:04:37.116Z,28.99
2018-07-24T20:07:07.687Z,28.98
2018-07-24T20:09:38.151Z,28.97
2018-07-24T20:12:08.802Z,28.96
2018-07-24T20:14:39.272Z,28.96
2018-07-24T20:17:11.194Z,28.94
2018-07-24T20:19:41.567Z,28.95
2018-07-24T20:22:12.270Z,28.95
2018-07-24T20:24:43.170Z,28.95
2018-07-24T20:27:14.032Z,28.95
2018-07-24T20:29:44.577Z,28.95
2018-07-24T20:32:14.764Z,28.93
2018-07-24T20:34:51.072Z,28.92
2018-07-24T20:37:21.367Z,28.91
2018-07-24T20:39:51.526Z,28.91
2018-07-24T20:42:21.705Z,28.90
2018-07-24T20:44:52.031Z,28.89
2018-07-24T20:47:22.278Z,28.88
2018-07-24T20:49:52.376Z,28.87
2018-07-24T20:52:22.779Z,28.86
2018-07-24T20:54:53.450Z,28.84
2018-07-24T20:57:24.492Z,28.83
2018-07-24T20:59:56.687Z,28.81
2018-07-24T21:02:27.451Z,28.79
2018-07-24T21:04:58.354Z,28.78
2018-07-24T21:07:28.464Z,28.77
2018-07-24T21:09:58.589Z,28.76
2018-07-24T21:12:28.870Z,28.75
2018-07-24T21:14:59.678Z,28.73
2018-07-24T21:17:30.049Z,28.73
2018-07-24T21:20:00.285Z,28.69
2018-07-24T21:22:31.208Z,28.68
2018-07-24T21:25:01.675Z,28.64
2018-07-24T21:27:32.042Z,28.61
2018-07-24T21:30:02.718Z,28.58
2018-07-24T21:32:32.798Z,28.55
2018-07-24T21:35:03.038Z,28.52
2018-07-24T21:37:33.275Z,28.51
2018-07-24T21:40:03.424Z,28.49
2018-07-24T21:42:34.288Z,28.48
2018-07-24T21:45:05.041Z,28.47
2018-07-24T21:47:35.239Z,28.43
2018-07-24T21:50:05.363Z,28.38
2018-07-24T21:52:35.871Z,28.37
2018-07-24T21:55:06.058Z,28.35
2018-07-24T21:57:36.288Z,28.33
2018-07-24T22:00:08.563Z,28.30
2018-07-24T22:02:38.568Z,28.29
2018-07-24T22:05:09.418Z,28.27
2018-07-24T22:07:39.462Z,28.25
2018-07-24T22:10:14.820Z,28.22
2018-07-24T22:12:45.122Z,28.19
2018-07-24T22:15:22.335Z,28.19
2018-07-24T22:17:52.754Z,28.16
2018-07-24T22:20:23.299Z,28.13
2018-07-24T22:22:53.691Z,28.11
2018-07-24T22:25:25.553Z,28.08
2018-07-24T22:27:56.658Z,28.05
2018-07-24T22:30:27.207Z,28.03
2018-07-24T22:32:57.324Z,27.98
2018-07-24T22:35:27.758Z,27.95
2018-07-24T22:37:58.347Z,27.93
2018-07-24T22:40:28.678Z,27.90
2018-07-24T22:42:58.989Z,27.88
2018-07-24T22:45:28.932Z,27.84
2018-07-24T22:47:59.170Z,27.84
2018-07-24T22:50:30.233Z,27.80
2018-07-24T22:53:00.805Z,27.73
2018-07-24T22:55:30.971Z,27.70
2018-07-24T22:58:07.906Z,27.65
2018-07-24T23:00:38.053Z,27.60
2018-07-24T23:03:08.373Z,27.56
2018-07-24T23:05:38.699Z,27.52
2018-07-24T23:08:08.816Z,27.48
2018-07-24T23:10:39.524Z,27.45
2018-07-24T23:13:09.649Z,27.41
2018-07-24T23:15:39.811Z,27.38
2018-07-24T23:18:10.575Z,27.36
2018-07-24T23:20:41.028Z,27.33
2018-07-24T23:23:17.627Z,27.27
2018-07-24T23:25:47.563Z,27.22
2018-07-24T23:28:17.942Z,27.19
2018-07-24T23:30:48.143Z,27.15
2018-07-24T23:33:18.326Z,27.10
2018-07-24T23:35:48.556Z,27.06
2018-07-24T23:38:18.810Z,27.04
2018-07-24T23:40:48.897Z,27.03
2018-07-24T23:43:19.192Z,26.98
2018-07-24T23:45:49.850Z,26.95
2018-07-24T23:48:20.010Z,26.91
2018-07-24T23:50:50.191Z,26.89
2018-07-24T23:53:20.290Z,26.86
2018-07-24T23:55:50.393Z,26.85
2018-07-24T23:58:20.794Z,26.83
